createdAt,value
2023-03-29T00:00:52.279Z,996.64
2023-03-29T00:01:52.336Z,996.55
2023-03-29T00:02:52.350Z,996.53
2023-03-29T00:03:52.316Z,996.52
2023-03-29T00:04:52.233Z,996.47
2023-03-29T00:05:52.223Z,996.48
2023-03-29T00:06:52.229Z,996.50
2023-03-29T00:07:52.213Z,996.44
2023-03-29T00:08:52.192Z,996.48
2023-03-29T00:09:52.177Z,996.48
2023-03-29T00:10:52.174Z,996.43
2023-03-29T00:11:52.161Z,996.52
2023-03-29T00:12:52.169Z,996.48
2023-03-29T00:13:52.136Z,996.44
2023-03-29T00:14:52.125Z,996.45
2023-03-29T00:15:52.122Z,996.48
2023-03-29T00:16:52.196Z,996.42
2023-03-29T00:17:52.125Z,996.43
2023-03-29T00:18:52.090Z,996.41
2023-03-29T00:19:52.072Z,996.34
2023-03-29T00:20:52.068Z,996.40
2023-03-29T00:21:52.047Z,996.44
2023-03-29T00:22:52.056Z,996.34
2023-03-29T00:23:52.035Z,996.34
2023-03-29T00:24:52.020Z,996.33
2023-03-29T00:25:52.006Z,996.39
2023-03-29T00:26:51.999Z,996.32
2023-03-29T00:27:51.995Z,996.32
2023-03-29T00:28:51.978Z,996.34
2023-03-29T00:29:51.968Z,996.30
2023-03-29T00:30:51.955Z,996.21
2023-03-29T00:31:52.086Z,996.22
2023-03-29T00:32:52.012Z,996.33
2023-03-29T00:33:51.924Z,996.24
2023-03-29T00:34:51.921Z,996.23
2023-03-29T00:35:51.915Z,996.31
2023-03-29T00:36:51.893Z,996.13
2023-03-29T00:37:51.886Z,996.15
2023-03-29T00:38:51.876Z,996.17
2023-03-29T00:39:51.862Z,996.28
2023-03-29T00:40:51.846Z,996.13
2023-03-29T00:41:51.842Z,996.07
2023-03-29T00:42:51.843Z,996.12
2023-03-29T00:43:51.818Z,996.05
2023-03-29T00:44:51.805Z,996.06
2023-03-29T00:45:51.794Z,996.04
2023-03-29T00:46:51.831Z,996.00
2023-03-29T00:47:51.804Z,996.01
2023-03-29T00:48:51.770Z,996.01
2023-03-29T00:49:51.752Z,995.96
2023-03-29T00:50:51.757Z,995.95
2023-03-29T00:51:51.733Z,995.89
2023-03-29T00:52:51.744Z,995.85
2023-03-29T00:53:51.709Z,995.89
2023-03-29T00:54:51.703Z,995.84
2023-03-29T00:55:51.693Z,995.81
2023-03-29T00:56:51.717Z,995.88
2023-03-29T00:57:51.678Z,995.87
2023-03-29T00:58:51.661Z,995.80
2023-03-29T00:59:51.645Z,995.84
2023-03-29T01:00:51.646Z,995.87
2023-03-29T01:01:51.654Z,995.76
2023-03-29T01:02:51.744Z,995.77
2023-03-29T01:03:51.684Z,995.73
2023-03-29T01:04:51.603Z,995.79
2023-03-29T01:05:52.733Z,995.81
2023-03-29T01:06:52.725Z,995.73
2023-03-29T01:07:52.721Z,995.70
2023-03-29T01:08:52.686Z,995.64
2023-03-29T01:09:52.668Z,995.60
2023-03-29T01:10:52.666Z,995.67
2023-03-29T01:11:52.650Z,995.54
2023-03-29T01:12:52.684Z,995.63
2023-03-29T01:13:52.629Z,995.67
2023-03-29T01:14:52.619Z,995.54
2023-03-29T01:15:52.613Z,995.57
2023-03-29T01:16:52.652Z,995.53
2023-03-29T01:17:52.658Z,995.50
2023-03-29T01:18:52.585Z,995.56
2023-03-29T01:19:52.573Z,995.48
2023-03-29T01:20:52.577Z,995.55
2023-03-29T01:21:52.564Z,995.54
2023-03-29T01:22:52.583Z,995.48
2023-03-29T01:23:52.550Z,995.49
2023-03-29T01:24:52.575Z,995.45
2023-03-29T01:25:52.519Z,995.40
2023-03-29T01:26:52.505Z,995.38
2023-03-29T01:27:52.515Z,995.45
2023-03-29T01:28:52.489Z,995.41
2023-03-29T01:29:52.477Z,995.36
2023-03-29T01:30:52.479Z,995.45
2023-03-29T01:31:52.511Z,995.29
2023-03-29T01:32:52.510Z,995.33
2023-03-29T01:33:52.446Z,995.30
2023-03-29T01:34:52.420Z,995.38
2023-03-29T01:35:52.483Z,995.28
2023-03-29T01:36:52.416Z,995.20
2023-03-29T01:37:52.409Z,995.15
2023-03-29T01:38:52.391Z,995.13
2023-03-29T01:39:52.414Z,995.14
2023-03-29T01:40:52.394Z,995.07
2023-03-29T01:41:52.376Z,995.03
2023-03-29T01:42:52.348Z,995.07
2023-03-29T01:43:52.342Z,995.03
2023-03-29T01:44:52.322Z,995.03
2023-03-29T01:45:52.336Z,995.01
2023-03-29T01:46:52.307Z,995.00
2023-03-29T01:47:52.305Z,995.04
2023-03-29T01:48:52.301Z,994.99
2023-03-29T01:49:52.278Z,994.96
2023-03-29T01:50:52.261Z,994.97
2023-03-29T01:51:52.298Z,995.05
2023-03-29T01:52:52.245Z,995.02
2023-03-29T01:53:52.247Z,994.99
2023-03-29T01:54:52.214Z,995.11
2023-03-29T01:55:52.206Z,994.99
2023-03-29T01:56:52.237Z,994.99
2023-03-29T01:57:52.190Z,995.04
2023-03-29T01:58:52.193Z,995.02
2023-03-29T01:59:52.165Z,994.94
2023-03-29T02:00:52.159Z,994.91
2023-03-29T02:01:52.244Z,994.89
2023-03-29T02:02:52.241Z,994.89
2023-03-29T02:03:52.136Z,994.92
2023-03-29T02:04:52.117Z,994.83
2023-03-29T02:05:52.108Z,994.82
2023-03-29T02:06:52.102Z,994.83
2023-03-29T02:07:52.086Z,994.76
2023-03-29T02:08:52.097Z,994.75
2023-03-29T02:09:52.076Z,994.77
2023-03-29T02:10:52.053Z,994.70
2023-03-29T02:11:52.053Z,994.76
2023-03-29T02:12:52.050Z,994.74
2023-03-29T02:13:52.041Z,994.81
2023-03-29T02:14:52.022Z,994.78
2023-03-29T02:15:52.047Z,994.79
2023-03-29T02:16:51.991Z,994.78
2023-03-29T02:17:52.003Z,994.84
2023-03-29T02:18:51.989Z,994.84
2023-03-29T02:19:51.976Z,994.80
2023-03-29T02:20:51.950Z,994.84
2023-03-29T02:21:51.946Z,994.84
2023-03-29T02:22:51.949Z,994.89
2023-03-29T02:23:51.935Z,994.83
2023-03-29T02:24:51.918Z,994.81
2023-03-29T02:25:51.907Z,994.77
2023-03-29T02:26:51.893Z,994.83
2023-03-29T02:27:51.902Z,994.76
2023-03-29T02:28:51.895Z,994.75
2023-03-29T02:29:51.861Z,994.69
2023-03-29T02:30:51.880Z,994.67
2023-03-29T02:31:51.860Z,994.63
2023-03-29T02:32:51.867Z,994.63
2023-03-29T02:33:51.842Z,994.62
2023-03-29T02:34:51.816Z,994.52
2023-03-29T02:35:51.827Z,994.60
2023-03-29T02:36:51.796Z,994.57
2023-03-29T02:37:51.800Z,994.55
2023-03-29T02:38:51.788Z,994.57
2023-03-29T02:39:51.758Z,994.56
2023-03-29T02:40:51.753Z,994.62
2023-03-29T02:41:51.742Z,994.61
2023-03-29T02:42:51.722Z,994.60
2023-03-29T02:43:51.731Z,994.58
2023-03-29T02:44:51.714Z,994.61
2023-03-29T02:45:51.711Z,994.59
2023-03-29T02:46:51.716Z,994.58
2023-03-29T02:47:51.793Z,994.54
2023-03-29T02:48:51.678Z,994.53
2023-03-29T02:49:51.659Z,994.51
2023-03-29T02:50:51.660Z,994.55
2023-03-29T02:51:51.652Z,994.53
2023-03-29T02:52:51.633Z,994.57
2023-03-29T02:53:51.639Z,994.52
2023-03-29T02:54:51.608Z,994.54
2023-03-29T02:55:51.600Z,994.47
2023-03-29T02:56:51.608Z,994.41
2023-03-29T02:57:51.585Z,994.48
2023-03-29T02:58:51.595Z,994.41
2023-03-29T02:59:51.557Z,994.43
2023-03-29T03:00:51.558Z,994.34
2023-03-29T03:01:51.583Z,994.35
2023-03-29T03:02:51.587Z,994.42
2023-03-29T03:03:51.589Z,994.30
2023-03-29T03:04:51.520Z,994.27
2023-03-29T03:05:51.502Z,994.29
2023-03-29T03:06:51.486Z,994.31
2023-03-29T03:07:51.487Z,994.23
2023-03-29T03:08:51.476Z,994.28
2023-03-29T03:09:51.482Z,994.26
2023-03-29T03:10:51.449Z,994.29
2023-03-29T03:11:51.442Z,994.27
2023-03-29T03:12:51.443Z,994.20
2023-03-29T03:13:51.424Z,994.16
2023-03-29T03:14:51.426Z,994.17
2023-03-29T03:15:51.455Z,994.16
2023-03-29T03:16:51.392Z,994.17
2023-03-29T03:17:51.396Z,994.24
2023-03-29T03:18:51.387Z,994.17
2023-03-29T03:19:51.373Z,994.13
2023-03-29T03:20:51.352Z,994.21
2023-03-29T03:21:51.344Z,994.18
2023-03-29T03:22:51.333Z,994.19
2023-03-29T03:23:51.314Z,994.22
2023-03-29T03:24:51.324Z,994.24
2023-03-29T03:25:51.305Z,994.15
2023-03-29T03:26:51.287Z,994.16
2023-03-29T03:27:51.277Z,994.23
2023-03-29T03:28:51.272Z,994.31
2023-03-29T03:29:51.265Z,994.19
2023-03-29T03:30:51.258Z,994.19
2023-03-29T03:31:53.808Z,994.08
2023-03-29T03:32:51.281Z,994.12
2023-03-29T03:33:51.225Z,994.21
2023-03-29T03:34:51.217Z,994.14
2023-03-29T03:35:51.221Z,994.17
2023-03-29T03:36:51.187Z,994.21
2023-03-29T03:37:51.189Z,994.14
2023-03-29T03:38:51.165Z,994.11
2023-03-29T03:39:51.163Z,994.08
2023-03-29T03:40:51.160Z,994.12
2023-03-29T03:41:51.134Z,994.12
2023-03-29T03:42:51.131Z,994.08
2023-03-29T03:43:51.116Z,994.10
2023-03-29T03:44:51.125Z,994.06
2023-03-29T03:45:51.179Z,994.09
2023-03-29T03:46:51.093Z,994.09
2023-03-29T03:47:51.087Z,994.02
2023-03-29T03:48:51.073Z,994.04
2023-03-29T03:49:51.076Z,994.01
2023-03-29T03:50:51.052Z,993.90
2023-03-29T03:51:52.257Z,994.00
2023-03-29T03:52:52.035Z,993.94
2023-03-29T03:53:51.022Z,993.90
2023-03-29T03:54:51.014Z,993.99
2023-03-29T03:55:50.992Z,993.98
2023-03-29T03:56:51.102Z,993.95
2023-03-29T03:57:50.973Z,993.95
2023-03-29T03:58:50.970Z,993.98
2023-03-29T03:59:50.971Z,994.05
2023-03-29T04:00:50.957Z,993.99
2023-03-29T04:01:50.936Z,994.17
2023-03-29T04:02:51.013Z,994.06
2023-03-29T04:03:50.985Z,994.09
2023-03-29T04:04:50.920Z,994.14
2023-03-29T04:05:50.890Z,994.12
2023-03-29T04:06:50.903Z,994.21
2023-03-29T04:07:50.879Z,994.17
2023-03-29T04:08:50.877Z,994.11
2023-03-29T04:09:50.867Z,994.05
2023-03-29T04:10:50.841Z,994.18
2023-03-29T04:11:50.834Z,994.09
2023-03-29T04:12:50.817Z,994.12
2023-03-29T04:13:50.814Z,994.14
2023-03-29T04:14:50.815Z,994.03
2023-03-29T04:15:50.835Z,994.02
2023-03-29T04:16:50.784Z,994.09
2023-03-29T04:17:50.885Z,994.01
2023-03-29T04:18:50.838Z,993.95
2023-03-29T04:19:50.762Z,993.99
2023-03-29T04:20:50.752Z,993.95
2023-03-29T04:21:50.732Z,994.02
2023-03-29T04:22:50.725Z,993.94
2023-03-29T04:23:50.715Z,993.89
2023-03-29T04:24:50.717Z,993.97
2023-03-29T04:25:50.710Z,993.95
2023-03-29T04:26:50.682Z,993.94
2023-03-29T04:27:50.676Z,993.96
2023-03-29T04:28:50.665Z,993.90
2023-03-29T04:29:50.674Z,993.98
2023-03-29T04:30:50.651Z,993.93
2023-03-29T04:31:51.659Z,993.90
2023-03-29T04:32:50.663Z,993.91
2023-03-29T04:33:50.611Z,993.92
2023-03-29T04:34:50.620Z,993.86
2023-03-29T04:35:50.701Z,993.92
2023-03-29T04:36:50.592Z,993.86
2023-03-29T04:37:50.585Z,993.83
2023-03-29T04:38:50.576Z,993.77
2023-03-29T04:39:50.579Z,993.91
2023-03-29T04:40:50.548Z,993.85
2023-03-29T04:41:50.541Z,993.87
2023-03-29T04:42:50.525Z,993.83
2023-03-29T04:43:50.526Z,993.79
2023-03-29T04:44:50.573Z,993.86
2023-03-29T04:45:50.506Z,993.83
2023-03-29T04:46:50.530Z,993.72
2023-03-29T04:47:50.495Z,993.77
2023-03-29T04:48:50.480Z,993.74
2023-03-29T04:49:50.453Z,993.71
2023-03-29T04:50:50.458Z,993.75
2023-03-29T04:51:50.435Z,993.85
2023-03-29T04:52:50.443Z,993.73
2023-03-29T04:53:50.460Z,993.69
2023-03-29T04:54:50.406Z,993.66
2023-03-29T04:55:50.410Z,993.65
2023-03-29T04:56:50.401Z,993.62
2023-03-29T04:57:50.381Z,993.64
2023-03-29T04:58:50.371Z,993.61
2023-03-29T04:59:50.363Z,993.61
2023-03-29T05:00:50.365Z,993.50
2023-03-29T05:01:50.377Z,993.55
2023-03-29T05:02:50.351Z,993.49
2023-03-29T05:03:50.366Z,993.47
2023-03-29T05:04:50.319Z,993.59
2023-03-29T05:05:50.318Z,993.47
2023-03-29T05:06:50.295Z,993.47
2023-03-29T05:07:50.281Z,993.45
2023-03-29T05:08:50.284Z,993.55
2023-03-29T05:09:50.261Z,993.41
2023-03-29T05:10:50.246Z,993.46
2023-03-29T05:11:50.225Z,993.50
2023-03-29T05:12:50.218Z,993.47
2023-03-29T05:13:50.215Z,993.40
2023-03-29T05:14:50.199Z,993.45
2023-03-29T05:15:50.250Z,993.48
2023-03-29T05:16:50.198Z,993.47
2023-03-29T05:17:50.202Z,993.47
2023-03-29T05:18:50.182Z,993.50
2023-03-29T05:19:50.156Z,993.47
2023-03-29T05:20:50.180Z,993.43
2023-03-29T05:21:50.159Z,993.50
2023-03-29T05:22:50.122Z,993.42
2023-03-29T05:23:50.145Z,993.47
2023-03-29T05:24:50.109Z,993.36
2023-03-29T05:25:50.131Z,993.49
2023-03-29T05:26:50.099Z,993.37
2023-03-29T05:27:50.095Z,993.37
2023-03-29T05:28:50.093Z,993.34
2023-03-29T05:29:50.071Z,993.34
2023-03-29T05:30:50.056Z,993.40
2023-03-29T05:31:50.157Z,993.38
2023-03-29T05:32:50.083Z,993.31
2023-03-29T05:33:50.057Z,993.36
2023-03-29T05:34:50.066Z,993.39
2023-03-29T05:35:50.048Z,993.35
2023-03-29T05:36:50.015Z,993.26
2023-03-29T05:37:50.025Z,993.35
2023-03-29T05:38:50.063Z,993.23
2023-03-29T05:39:49.986Z,993.36
2023-03-29T05:40:50.003Z,993.25
2023-03-29T05:41:49.939Z,993.23
2023-03-29T05:42:49.940Z,993.19
2023-03-29T05:43:49.929Z,993.20
2023-03-29T05:44:51.092Z,993.22
2023-03-29T05:45:49.912Z,993.13
2023-03-29T05:46:49.896Z,993.18
2023-03-29T05:47:49.917Z,993.14
2023-03-29T05:48:49.856Z,993.20
2023-03-29T05:49:49.878Z,993.20
2023-03-29T05:50:49.869Z,993.22
2023-03-29T05:51:49.847Z,993.25
2023-03-29T05:52:49.815Z,993.21
2023-03-29T05:53:49.816Z,993.13
2023-03-29T05:54:49.807Z,993.18
2023-03-29T05:55:49.799Z,993.17
2023-03-29T05:56:49.830Z,993.06
2023-03-29T05:57:49.783Z,993.16
2023-03-29T05:58:49.765Z,993.13
2023-03-29T06:01:15.820Z,993.12
2023-03-29T06:02:15.922Z,993.03
2023-03-29T06:03:21.510Z,993.11
2023-03-29T06:04:16.835Z,993.06
2023-03-29T06:05:15.762Z,993.06
2023-03-29T06:06:15.769Z,993.13
2023-03-29T06:07:15.745Z,993.08
2023-03-29T06:08:15.744Z,993.03
2023-03-29T06:09:15.726Z,993.05
2023-03-29T06:10:15.716Z,993.13
2023-03-29T06:11:15.702Z,993.09
2023-03-29T06:12:15.693Z,993.12
2023-03-29T06:13:15.692Z,993.04
2023-03-29T06:14:15.671Z,993.17
2023-03-29T06:15:15.653Z,993.12
2023-03-29T06:16:15.676Z,993.23
2023-03-29T06:17:15.680Z,993.11
2023-03-29T06:18:15.625Z,993.08
2023-03-29T06:19:15.624Z,993.11
2023-03-29T06:20:15.607Z,993.19
2023-03-29T06:21:15.602Z,993.16
2023-03-29T06:22:15.610Z,993.10
2023-03-29T06:23:15.601Z,993.18
2023-03-29T06:24:15.581Z,993.09
2023-03-29T06:25:15.651Z,993.05
2023-03-29T06:26:15.563Z,993.00
2023-03-29T06:27:15.533Z,992.97
2023-03-29T06:28:15.526Z,992.98
2023-03-29T06:29:15.510Z,993.04
2023-03-29T06:30:15.547Z,993.05
2023-03-29T06:31:15.512Z,993.01
2023-03-29T06:32:15.483Z,993.02
2023-03-29T06:33:15.500Z,993.11
2023-03-29T06:34:15.463Z,993.00
2023-03-29T06:35:15.463Z,992.98
2023-03-29T06:36:15.499Z,993.00
2023-03-29T06:37:15.434Z,993.00
2023-03-29T06:38:15.424Z,993.02
2023-03-29T06:39:15.413Z,993.08
2023-03-29T06:40:15.407Z,993.00
2023-03-29T06:41:15.407Z,993.04
2023-03-29T06:42:21.139Z,993.14
2023-03-29T06:43:16.368Z,993.12
2023-03-29T06:44:15.361Z,993.06
2023-03-29T06:45:15.348Z,993.17
2023-03-29T06:46:15.378Z,993.02
2023-03-29T06:47:15.332Z,992.99
2023-03-29T06:48:15.322Z,993.10
2023-03-29T06:49:15.306Z,993.11
2023-03-29T06:50:15.300Z,993.11
2023-03-29T06:51:15.297Z,993.10
2023-03-29T06:52:15.276Z,993.11
2023-03-29T06:53:15.272Z,993.13
2023-03-29T06:54:15.258Z,993.11
2023-03-29T06:55:15.253Z,993.15
2023-03-29T06:56:15.249Z,993.15
2023-03-29T06:57:15.293Z,993.17
2023-03-29T06:58:15.214Z,993.25
2023-03-29T06:59:15.205Z,993.28
2023-03-29T07:00:15.528Z,993.30
2023-03-29T07:01:15.364Z,993.27
2023-03-29T07:02:15.222Z,993.31
2023-03-29T07:03:15.182Z,993.38
2023-03-29T07:04:15.193Z,993.44
2023-03-29T07:05:15.137Z,993.37
2023-03-29T07:06:15.139Z,993.34
2023-03-29T07:07:15.112Z,993.37
2023-03-29T07:08:15.122Z,993.31
2023-03-29T07:09:16.193Z,993.38
2023-03-29T07:10:15.098Z,993.51
2023-03-29T07:11:15.102Z,993.49
2023-03-29T07:12:15.059Z,993.50
2023-03-29T07:13:15.050Z,993.49
2023-03-29T07:14:15.299Z,993.52
2023-03-29T07:15:15.035Z,993.46
2023-03-29T07:16:15.120Z,993.48
2023-03-29T07:17:15.013Z,993.44
2023-03-29T07:18:15.024Z,993.49
2023-03-29T07:19:14.987Z,993.47
2023-03-29T07:20:14.977Z,993.49
2023-03-29T07:21:14.981Z,993.49
2023-03-29T07:22:14.957Z,993.47
2023-03-29T07:23:14.948Z,993.46
2023-03-29T07:24:14.935Z,993.42
2023-03-29T07:25:14.921Z,993.38
2023-03-29T07:26:14.928Z,993.37
2023-03-29T07:27:15.899Z,993.44
2023-03-29T07:28:14.929Z,993.44
2023-03-29T07:29:14.883Z,993.43
2023-03-29T07:30:14.891Z,993.43
2023-03-29T07:31:14.868Z,993.47
2023-03-29T07:32:14.865Z,993.43
2023-03-29T07:33:14.952Z,993.51
2023-03-29T07:34:14.833Z,993.48
2023-03-29T07:35:14.831Z,993.45
2023-03-29T07:36:14.854Z,993.47
2023-03-29T07:37:14.803Z,993.52
2023-03-29T07:38:14.790Z,993.48
2023-03-29T07:39:14.772Z,993.54
2023-03-29T07:40:14.768Z,993.53
2023-03-29T07:41:14.758Z,993.50
2023-03-29T07:42:14.784Z,993.48
2023-03-29T07:43:14.756Z,993.56
2023-03-29T07:44:14.730Z,993.42
2023-03-29T07:45:14.725Z,993.42
2023-03-29T07:46:14.711Z,993.43
2023-03-29T07:47:14.697Z,993.46
2023-03-29T07:48:14.799Z,993.41
2023-03-29T07:49:14.673Z,993.50
2023-03-29T07:50:14.656Z,993.44
2023-03-29T07:51:14.642Z,993.40
2023-03-29T07:52:14.663Z,993.36
2023-03-29T07:53:14.632Z,993.40
2023-03-29T07:54:14.614Z,993.32
2023-03-29T07:55:14.609Z,993.41
2023-03-29T07:56:14.600Z,993.34
2023-03-29T07:57:14.673Z,993.35
2023-03-29T07:58:14.588Z,993.33
2023-03-29T07:59:14.556Z,993.32
2023-03-29T08:00:14.574Z,993.27
2023-03-29T08:01:17.086Z,993.37
2023-03-29T08:02:14.538Z,993.40
2023-03-29T08:03:14.630Z,993.35
2023-03-29T08:04:14.556Z,993.42
2023-03-29T08:05:15.395Z,993.36
2023-03-29T08:06:14.481Z,993.37
2023-03-29T08:07:16.438Z,993.32
2023-03-29T08:08:14.474Z,993.43
2023-03-29T08:09:14.455Z,993.37
2023-03-29T08:10:14.456Z,993.44
2023-03-29T08:11:15.212Z,993.42
2023-03-29T08:13:44.450Z,993.39
2023-03-29T08:14:40.403Z,993.34
2023-03-29T08:15:40.377Z,993.38
2023-03-29T08:16:40.392Z,993.44
2023-03-29T08:17:40.365Z,993.38
2023-03-29T08:18:40.359Z,993.39
2023-03-29T08:19:40.337Z,993.33
2023-03-29T08:20:41.335Z,993.36
2023-03-29T08:21:40.328Z,993.44
2023-03-29T08:22:40.318Z,993.31
2023-03-29T08:23:40.294Z,993.35
2023-03-29T08:24:40.286Z,993.26
2023-03-29T08:25:40.281Z,993.35
2023-03-29T08:26:40.276Z,993.28
2023-03-29T08:27:40.572Z,993.31
2023-03-29T08:36:21.238Z,993.34
2023-03-29T08:36:54.174Z,993.31
2023-03-29T08:37:54.124Z,993.34
2023-03-29T08:40:20.348Z,993.35
2023-03-29T08:41:20.061Z,993.39
2023-03-29T08:42:20.058Z,993.40
2023-03-29T08:43:20.346Z,993.40
2023-03-29T08:44:20.061Z,993.38
2023-03-29T08:45:20.013Z,993.47
2023-03-29T08:46:20.026Z,993.38
2023-03-29T08:47:19.998Z,993.39
2023-03-29T08:48:20.073Z,993.42
2023-03-29T09:16:37.233Z,993.42
2023-03-29T09:17:37.235Z,993.51
2023-03-29T09:18:37.175Z,993.52
2023-03-29T09:19:37.198Z,993.39
2023-03-29T09:20:37.162Z,993.40
2023-03-29T09:21:37.163Z,993.37
2023-03-29T09:22:37.144Z,993.40
2023-03-29T09:23:37.123Z,993.33
2023-03-29T09:24:37.111Z,993.42
2023-03-29T09:25:50.854Z,993.44
2023-03-29T09:26:38.090Z,993.43
2023-03-29T09:27:37.088Z,993.51
2023-03-29T09:28:37.068Z,993.45
2023-03-29T09:29:37.056Z,993.52
2023-03-29T09:30:37.055Z,993.44
2023-03-29T09:31:37.072Z,993.40
2023-03-29T09:32:37.094Z,993.32
2023-03-29T09:33:37.023Z,993.34
2023-03-29T09:34:37.012Z,993.35
2023-03-29T09:35:37.040Z,993.44
2023-03-29T09:36:37.003Z,993.28
2023-03-29T09:37:36.989Z,993.27
2023-03-29T09:38:36.970Z,993.27
2023-03-29T09:39:36.959Z,993.29
2023-03-29T09:40:36.946Z,993.26
2023-03-29T09:41:36.931Z,993.12
2023-03-29T09:42:36.934Z,993.18
2023-03-29T09:43:36.918Z,993.26
2023-03-29T09:44:36.899Z,993.21
2023-03-29T09:45:36.914Z,993.21
2023-03-29T09:46:36.884Z,993.22
2023-03-29T09:47:36.898Z,993.27
2023-03-29T09:48:36.865Z,993.32
2023-03-29T09:49:36.847Z,993.22
2023-03-29T09:50:36.861Z,993.29
2023-03-29T09:51:36.829Z,993.29
2023-03-29T09:52:36.842Z,993.25
2023-03-29T09:53:36.805Z,993.36
2023-03-29T09:54:36.821Z,993.30
2023-03-29T09:55:36.786Z,993.21
2023-03-29T09:56:36.780Z,993.36
2023-03-29T09:57:36.787Z,993.27
2023-03-29T09:58:36.761Z,993.38
2023-03-29T09:59:36.750Z,993.32
2023-03-29T10:00:36.740Z,993.31
2023-03-29T10:01:36.753Z,993.31
2023-03-29T10:02:36.770Z,993.20
2023-03-29T10:03:36.708Z,993.25
2023-03-29T10:04:36.812Z,993.27
2023-03-29T10:05:36.707Z,993.18
2023-03-29T10:06:36.684Z,993.16
2023-03-29T10:07:36.682Z,993.16
2023-03-29T10:08:36.661Z,993.16
2023-03-29T10:09:36.644Z,993.29
2023-03-29T10:10:36.636Z,993.21
2023-03-29T10:11:36.621Z,993.10
2023-03-29T10:12:36.626Z,993.17
2023-03-29T10:13:36.616Z,993.08
2023-03-29T10:14:36.596Z,993.10
2023-03-29T10:15:36.583Z,993.11
2023-03-29T10:16:36.601Z,993.11
2023-03-29T10:17:36.575Z,993.10
2023-03-29T10:18:36.563Z,993.10
2023-03-29T10:19:36.541Z,993.16
2023-03-29T10:20:36.573Z,993.15
2023-03-29T10:21:36.524Z,993.15
2023-03-29T10:22:36.521Z,993.10
2023-03-29T10:23:36.518Z,992.98
2023-03-29T10:24:36.496Z,993.09
2023-03-29T10:25:36.479Z,993.08
2023-03-29T10:26:36.478Z,993.14
2023-03-29T10:27:36.461Z,993.09
2023-03-29T10:28:36.482Z,993.11
2023-03-29T10:29:36.438Z,993.08
2023-03-29T10:30:36.438Z,993.15
2023-03-29T10:31:36.472Z,993.05
2023-03-29T10:32:36.454Z,993.17
2023-03-29T10:33:36.421Z,993.16
2023-03-29T10:34:36.396Z,993.13
2023-03-29T10:35:36.425Z,993.12
2023-03-29T10:36:36.375Z,993.12
2023-03-29T10:37:36.365Z,993.12
2023-03-29T10:38:36.366Z,993.12
2023-03-29T10:39:36.336Z,993.18
2023-03-29T10:40:36.379Z,993.08
2023-03-29T10:41:36.320Z,993.09
2023-03-29T10:42:36.308Z,993.15
2023-03-29T10:43:36.308Z,993.17
2023-03-29T10:44:36.290Z,993.14
2023-03-29T10:45:36.274Z,993.14
2023-03-29T10:46:36.337Z,993.09
2023-03-29T10:47:36.298Z,993.10
2023-03-29T10:48:36.260Z,993.03
2023-03-29T10:49:36.235Z,993.10
2023-03-29T10:50:36.221Z,993.04
2023-03-29T10:51:36.213Z,993.00
2023-03-29T10:52:36.206Z,992.99
2023-03-29T10:53:36.199Z,992.98
2023-03-29T10:54:36.185Z,992.98
2023-03-29T10:55:36.470Z,992.98
2023-03-29T10:56:57.178Z,992.99
2023-03-29T10:57:36.200Z,992.96
2023-03-29T10:58:36.158Z,993.01
2023-03-29T10:59:36.128Z,993.02
2023-03-29T11:00:36.118Z,992.94
2023-03-29T11:01:36.158Z,993.00
2023-03-29T11:02:36.176Z,993.06
2023-03-29T11:03:36.204Z,993.10
2023-03-29T11:04:36.293Z,993.02
2023-03-29T11:05:36.066Z,993.03
2023-03-29T11:06:36.053Z,992.89
2023-03-29T11:07:36.064Z,992.87
2023-03-29T11:08:36.141Z,992.92
2023-03-29T11:09:36.027Z,992.79
2023-03-29T11:10:36.012Z,992.80
2023-03-29T11:11:36.006Z,992.85
2023-03-29T11:12:35.989Z,992.84
2023-03-29T11:13:35.993Z,992.91
2023-03-29T11:14:35.976Z,992.90
2023-03-29T11:15:36.009Z,992.89
2023-03-29T11:16:35.955Z,992.86
2023-03-29T11:17:35.982Z,992.83
2023-03-29T11:18:35.938Z,992.89
2023-03-29T11:19:35.921Z,992.79
2023-03-29T11:20:35.902Z,992.74
2023-03-29T11:21:35.909Z,992.77
2023-03-29T11:22:35.895Z,992.73
2023-03-29T11:23:35.916Z,992.72
2023-03-29T11:24:35.871Z,992.68
2023-03-29T11:25:35.867Z,992.80
2023-03-29T11:26:35.846Z,992.73
2023-03-29T11:27:35.858Z,992.69
2023-03-29T11:28:35.839Z,992.60
2023-03-29T11:29:35.821Z,992.65
2023-03-29T11:30:35.800Z,992.63
2023-03-29T11:31:38.353Z,992.72
2023-03-29T11:32:35.801Z,992.78
2023-03-29T11:33:35.784Z,992.64
2023-03-29T11:34:36.793Z,992.62
2023-03-29T11:35:35.801Z,992.70
2023-03-29T11:36:35.739Z,992.71
2023-03-29T11:37:35.737Z,992.69
2023-03-29T11:38:35.735Z,992.69
2023-03-29T11:39:35.721Z,992.74
2023-03-29T11:40:35.710Z,992.66
2023-03-29T11:41:35.689Z,992.73
2023-03-29T11:42:35.687Z,992.69
2023-03-29T11:43:35.684Z,992.66
2023-03-29T11:44:35.667Z,992.55
2023-03-29T11:45:35.644Z,992.69
2023-03-29T11:46:36.776Z,992.64
2023-03-29T11:47:36.801Z,992.68
2023-03-29T11:48:36.761Z,992.68
2023-03-29T11:49:36.764Z,992.66
2023-03-29T11:50:36.925Z,992.62
2023-03-29T11:51:37.726Z,992.69
2023-03-29T11:52:36.700Z,992.65
2023-03-29T11:53:36.726Z,992.74
2023-03-29T11:54:36.698Z,992.69
2023-03-29T11:55:36.679Z,992.72
2023-03-29T11:56:36.675Z,992.72
2023-03-29T11:57:36.667Z,992.79
2023-03-29T11:58:38.855Z,992.65
2023-03-29T11:59:37.654Z,992.68
2023-03-29T12:00:36.627Z,992.67
2023-03-29T12:01:36.656Z,992.59
2023-03-29T12:02:36.747Z,992.59
2023-03-29T12:03:36.643Z,992.57
2023-03-29T12:04:37.591Z,992.54
2023-03-29T12:05:36.588Z,992.61
2023-03-29T12:06:36.565Z,992.58
2023-03-29T12:07:36.557Z,992.55
2023-03-29T12:08:36.538Z,992.57
2023-03-29T12:09:36.539Z,992.52
2023-03-29T12:10:36.545Z,992.54
2023-03-29T12:11:36.515Z,992.51
2023-03-29T12:12:36.513Z,992.42
2023-03-29T12:13:36.499Z,992.45
2023-03-29T12:14:36.506Z,992.40
2023-03-29T12:15:36.505Z,992.43
2023-03-29T12:16:36.532Z,992.35
2023-03-29T12:17:36.487Z,992.35
2023-03-29T12:18:36.469Z,992.39
2023-03-29T12:19:40.281Z,992.37
2023-03-29T12:20:38.537Z,992.37
2023-03-29T12:21:36.444Z,992.28
2023-03-29T12:22:36.416Z,992.26
2023-03-29T12:23:36.409Z,992.23
2023-03-29T12:24:36.411Z,992.30
2023-03-29T12:25:36.409Z,992.22
2023-03-29T12:26:36.373Z,992.26
2023-03-29T12:27:36.355Z,992.24
2023-03-29T12:28:36.366Z,992.29
2023-03-29T12:29:36.344Z,992.25
2023-03-29T12:30:36.337Z,992.28
2023-03-29T12:31:36.368Z,992.39
2023-03-29T12:32:36.373Z,992.19
2023-03-29T12:33:36.294Z,992.22
2023-03-29T12:34:36.316Z,992.17
2023-03-29T12:35:36.312Z,992.26
2023-03-29T12:36:36.273Z,992.19
2023-03-29T12:37:36.287Z,992.24
2023-03-29T12:38:36.255Z,992.22
2023-03-29T15:00:30.630Z,991.38
2023-03-29T15:01:29.588Z,991.40
2023-03-29T15:02:29.597Z,991.27
2023-03-29T15:03:29.579Z,991.23
2023-03-29T15:04:29.464Z,991.20
2023-03-29T15:05:29.454Z,991.19
2023-03-29T15:06:29.447Z,991.16
2023-03-29T15:07:29.452Z,991.17
2023-03-29T15:08:29.434Z,991.21
2023-03-29T15:09:29.405Z,991.14
2023-03-29T15:10:29.411Z,991.12
2023-03-29T15:11:29.389Z,991.11
2023-03-29T15:12:29.389Z,991.11
2023-03-29T15:13:29.365Z,991.08
2023-03-29T15:14:29.365Z,991.10
2023-03-29T15:15:29.374Z,991.13
2023-03-29T15:16:29.465Z,991.01
2023-03-29T15:17:36.320Z,991.07
2023-03-29T15:18:30.364Z,991.09
2023-03-29T15:19:29.305Z,991.11
2023-03-29T15:20:29.297Z,991.00
2023-03-29T15:21:29.278Z,991.06
2023-03-29T15:22:29.282Z,991.07
2023-03-29T15:23:29.257Z,991.07
2023-03-29T15:24:29.249Z,991.05
2023-03-29T15:25:29.245Z,991.06
2023-03-29T15:26:29.230Z,991.04
2023-03-29T15:27:29.889Z,991.04
2023-03-29T15:28:29.288Z,990.99